sensor_id;sensor_type;location;lat;lon;timestamp;P1;durP1;ratioP1;P2;durP2;ratioP2
13163;SDS011;6647;53.688;10.746;2022-09-17T00:00:33;27.33;;;4.20;;
13163;SDS011;6647;53.688;10.746;2022-09-17T00:01:54;26.27;;;4.05;;
13163;SDS011;6647;53.688;10.746;2022-09-17T00:03:15;21.17;;;3.78;;
13163;SDS011;6647;53.688;10.746;2022-09-17T00:04:37;14.55;;;3.35;;
13163;SDS011;6647;53.688;10.746;2022-09-17T00:06:02;21.00;;;3.25;;
13163;SDS011;6647;53.688;10.746;2022-09-17T00:07:25;21.27;;;3.47;;
13163;SDS011;6647;53.688;10.746;2022-09-17T00:08:47;18.95;;;3.20;;
13163;SDS011;6647;53.688;10.746;2022-09-17T00:10:08;21.48;;;3.13;;
13163;SDS011;6647;53.688;10.746;2022-09-17T00:11:30;23.90;;;3.42;;
13163;SDS011;6647;53.688;10.746;2022-09-17T00:12:52;20.90;;;3.92;;
13163;SDS011;6647;53.688;10.746;2022-09-17T00:14:14;29.38;;;4.88;;
13163;SDS011;6647;53.688;10.746;2022-09-17T00:15:42;26.80;;;4.13;;
13163;SDS011;6647;53.688;10.746;2022-09-17T00:17:04;19.30;;;3.47;;
13163;SDS011;6647;53.688;10.746;2022-09-17T00:18:25;16.95;;;4.15;;
13163;SDS011;6647;53.688;10.746;2022-09-17T00:19:46;12.65;;;3.22;;
13163;SDS011;6647;53.688;10.746;2022-09-17T00:21:15;19.90;;;3.00;;
13163;SDS011;6647;53.688;10.746;2022-09-17T00:22:37;19.83;;;3.70;;
13163;SDS011;6647;53.688;10.746;2022-09-17T00:23:59;13.98;;;3.15;;
13163;SDS011;6647;53.688;10.746;2022-09-17T00:25:22;19.80;;;4.15;;
13163;SDS011;6647;53.688;10.746;2022-09-17T00:26:43;25.58;;;3.70;;
13163;SDS011;6647;53.688;10.746;2022-09-17T00:28:04;13.93;;;3.60;;
13163;SDS011;6647;53.688;10.746;2022-09-17T00:29:25;24.08;;;3.40;;
13163;SDS011;6647;53.688;10.746;2022-09-17T00:30:46;27.20;;;4.20;;
13163;SDS011;6647;53.688;10.746;2022-09-17T00:32:07;23.23;;;4.35;;
13163;SDS011;6647;53.688;10.746;2022-09-17T00:33:28;30.52;;;4.35;;
13163;SDS011;6647;53.688;10.746;2022-09-17T00:34:49;25.45;;;3.70;;
13163;SDS011;6647;53.688;10.746;2022-09-17T00:36:11;31.58;;;4.43;;
13163;SDS011;6647;53.688;10.746;2022-09-17T00:37:32;20.00;;;4.45;;
13163;SDS011;6647;53.688;10.746;2022-09-17T00:38:54;24.38;;;5.00;;
13163;SDS011;6647;53.688;10.746;2022-09-17T00:40:18;23.77;;;4.40;;
13163;SDS011;6647;53.688;10.746;2022-09-17T00:41:40;21.98;;;3.83;;
13163;SDS011;6647;53.688;10.746;2022-09-17T00:43:01;19.05;;;4.00;;
13163;SDS011;6647;53.688;10.746;2022-09-17T00:46:01;22.98;;;4.40;;
13163;SDS011;6647;53.688;10.746;2022-09-17T00:49:05;32.65;;;4.15;;
13163;SDS011;6647;53.688;10.746;2022-09-17T00:50:40;33.75;;;4.65;;
13163;SDS011;6647;53.688;10.746;2022-09-17T00:52:05;19.85;;;3.50;;
13163;SDS011;6647;53.688;10.746;2022-09-17T00:53:30;28.73;;;3.80;;
13163;SDS011;6647;53.688;10.746;2022-09-17T00:54:52;25.50;;;4.10;;
13163;SDS011;6647;53.688;10.746;2022-09-17T00:56:35;21.73;;;4.32;;
13163;SDS011;6647;53.688;10.746;2022-09-17T00:58:00;19.48;;;3.85;;
13163;SDS011;6647;53.688;10.746;2022-09-17T00:59:22;23.25;;;4.35;;
13163;SDS011;6647;53.688;10.746;2022-09-17T01:00:43;21.25;;;4.55;;
13163;SDS011;6647;53.688;10.746;2022-09-17T01:02:06;20.77;;;3.85;;
13163;SDS011;6647;53.688;10.746;2022-09-17T01:03:27;28.67;;;4.38;;
13163;SDS011;6647;53.688;10.746;2022-09-17T01:04:52;22.77;;;3.75;;
13163;SDS011;6647;53.688;10.746;2022-09-17T01:06:20;28.52;;;3.60;;
13163;SDS011;6647;53.688;10.746;2022-09-17T01:09:55;18.27;;;3.92;;
13163;SDS011;6647;53.688;10.746;2022-09-17T01:13:15;28.20;;;3.65;;
13163;SDS011;6647;53.688;10.746;2022-09-17T01:15:01;22.25;;;3.85;;
13163;SDS011;6647;53.688;10.746;2022-09-17T01:16:48;24.30;;;4.25;;
13163;SDS011;6647;53.688;10.746;2022-09-17T01:21:36;22.83;;;4.05;;
13163;SDS011;6647;53.688;10.746;2022-09-17T01:26:34;22.55;;;4.10;;
13163;SDS011;6647;53.688;10.746;2022-09-17T01:28:26;20.35;;;3.65;;
13163;SDS011;6647;53.688;10.746;2022-09-17T01:31:53;32.78;;;4.85;;
13163;SDS011;6647;53.688;10.746;2022-09-17T01:33:19;19.92;;;3.10;;
13163;SDS011;6647;53.688;10.746;2022-09-17T01:42:46;20.45;;;3.47;;
13163;SDS011;6647;53.688;10.746;2022-09-17T01:45:51;28.65;;;4.20;;
13163;SDS011;6647;53.688;10.746;2022-09-17T01:47:33;34.80;;;4.28;;
13163;SDS011;6647;53.688;10.746;2022-09-17T01:49:00;19.95;;;4.00;;
13163;SDS011;6647;53.688;10.746;2022-09-17T01:50:29;22.35;;;3.50;;
13163;SDS011;6647;53.688;10.746;2022-09-17T01:51:53;25.42;;;3.70;;
13163;SDS011;6647;53.688;10.746;2022-09-17T01:53:15;24.85;;;4.55;;
13163;SDS011;6647;53.688;10.746;2022-09-17T01:54:48;27.00;;;3.70;;
13163;SDS011;6647;53.688;10.746;2022-09-17T01:56:13;23.42;;;4.13;;
13163;SDS011;6647;53.688;10.746;2022-09-17T01:57:39;26.92;;;3.40;;
13163;SDS011;6647;53.688;10.746;2022-09-17T01:59:09;20.15;;;3.85;;
13163;SDS011;6647;53.688;10.746;2022-09-17T02:00:42;24.02;;;3.47;;
13163;SDS011;6647;53.688;10.746;2022-09-17T02:02:12;26.00;;;3.95;;
13163;SDS011;6647;53.688;10.746;2022-09-17T02:03:41;30.52;;;3.97;;
13163;SDS011;6647;53.688;10.746;2022-09-17T02:05:19;20.42;;;4.15;;
13163;SDS011;6647;53.688;10.746;2022-09-17T02:06:45;23.75;;;3.20;;
13163;SDS011;6647;53.688;10.746;2022-09-17T02:08:18;27.65;;;4.30;;
13163;SDS011;6647;53.688;10.746;2022-09-17T02:09:43;33.95;;;4.88;;
13163;SDS011;6647;53.688;10.746;2022-09-17T02:11:13;29.05;;;3.80;;
13163;SDS011;6647;53.688;10.746;2022-09-17T02:12:37;26.95;;;3.78;;
13163;SDS011;6647;53.688;10.746;2022-09-17T02:14:12;28.98;;;4.20;;
13163;SDS011;6647;53.688;10.746;2022-09-17T02:16:10;27.45;;;4.32;;
13163;SDS011;6647;53.688;10.746;2022-09-17T02:17:38;21.45;;;3.75;;
13163;SDS011;6647;53.688;10.746;2022-09-17T02:20:45;33.03;;;4.80;;
13163;SDS011;6647;53.688;10.746;2022-09-17T02:22:29;17.65;;;4.03;;
13163;SDS011;6647;53.688;10.746;2022-09-17T02:24:02;19.55;;;3.53;;
13163;SDS011;6647;53.688;10.746;2022-09-17T02:25:41;28.98;;;4.88;;
13163;SDS011;6647;53.688;10.746;2022-09-17T02:29:58;27.60;;;4.20;;
13163;SDS011;6647;53.688;10.746;2022-09-17T02:31:19;17.08;;;3.55;;
13163;SDS011;6647;53.688;10.746;2022-09-17T02:32:40;22.83;;;4.13;;
13163;SDS011;6647;53.688;10.746;2022-09-17T02:34:01;18.27;;;3.83;;
13163;SDS011;6647;53.688;10.746;2022-09-17T02:35:25;40.13;;;4.07;;
13163;SDS011;6647;53.688;10.746;2022-09-17T02:36:46;20.73;;;3.58;;
13163;SDS011;6647;53.688;10.746;2022-09-17T02:38:07;13.80;;;3.17;;
13163;SDS011;6647;53.688;10.746;2022-09-17T02:39:28;24.70;;;4.47;;
13163;SDS011;6647;53.688;10.746;2022-09-17T02:40:57;23.30;;;3.58;;
13163;SDS011;6647;53.688;10.746;2022-09-17T02:43:12;25.00;;;3.45;;
13163;SDS011;6647;53.688;10.746;2022-09-17T02:44:29;16.67;;;3.17;;
13163;SDS011;6647;53.688;10.746;2022-09-17T02:46:09;20.95;;;4.00;;
13163;SDS011;6647;53.688;10.746;2022-09-17T02:47:51;25.00;;;3.65;;
13163;SDS011;6647;53.688;10.746;2022-09-17T02:51:04;26.48;;;4.00;;
13163;SDS011;6647;53.688;10.746;2022-09-17T02:54:30;25.48;;;3.50;;
13163;SDS011;6647;53.688;10.746;2022-09-17T02:56:12;25.85;;;3.47;;
13163;SDS011;6647;53.688;10.746;2022-09-17T02:57:51;29.75;;;4.95;;
13163;SDS011;6647;53.688;10.746;2022-09-17T02:59:20;16.52;;;3.22;;
13163;SDS011;6647;53.688;10.746;2022-09-17T03:00:44;27.00;;;3.90;;
13163;SDS011;6647;53.688;10.746;2022-09-17T03:02:08;18.80;;;3.45;;
13163;SDS011;6647;53.688;10.746;2022-09-17T03:03:38;18.05;;;3.35;;
13163;SDS011;6647;53.688;10.746;2022-09-17T03:05:02;24.83;;;4.65;;
13163;SDS011;6647;53.688;10.746;2022-09-17T03:06:25;16.40;;;2.63;;
13163;SDS011;6647;53.688;10.746;2022-09-17T03:07:46;17.35;;;3.65;;
13163;SDS011;6647;53.688;10.746;2022-09-17T03:09:08;33.65;;;4.82;;
13163;SDS011;6647;53.688;10.746;2022-09-17T03:10:29;23.25;;;3.60;;
13163;SDS011;6647;53.688;10.746;2022-09-17T03:11:52;19.05;;;2.90;;
13163;SDS011;6647;53.688;10.746;2022-09-17T03:13:14;17.65;;;3.35;;
13163;SDS011;6647;53.688;10.746;2022-09-17T03:14:35;18.98;;;3.55;;
13163;SDS011;6647;53.688;10.746;2022-09-17T03:15:56;17.58;;;4.35;;
13163;SDS011;6647;53.688;10.746;2022-09-17T03:17:17;20.35;;;3.20;;
13163;SDS011;6647;53.688;10.746;2022-09-17T03:18:38;18.15;;;3.08;;
13163;SDS011;6647;53.688;10.746;2022-09-17T03:19:59;18.88;;;3.92;;
13163;SDS011;6647;53.688;10.746;2022-09-17T03:21:20;21.25;;;3.95;;
13163;SDS011;6647;53.688;10.746;2022-09-17T03:22:41;30.52;;;3.90;;
13163;SDS011;6647;53.688;10.746;2022-09-17T03:24:02;18.20;;;2.90;;
13163;SDS011;6647;53.688;10.746;2022-09-17T03:25:23;13.65;;;3.17;;
13163;SDS011;6647;53.688;10.746;2022-09-17T03:26:44;32.22;;;3.88;;
13163;SDS011;6647;53.688;10.746;2022-09-17T03:28:06;15.48;;;2.92;;
13163;SDS011;6647;53.688;10.746;2022-09-17T03:29:27;26.13;;;4.28;;
13163;SDS011;6647;53.688;10.746;2022-09-17T03:30:48;20.52;;;3.90;;
13163;SDS011;6647;53.688;10.746;2022-09-17T03:32:09;17.33;;;2.97;;
13163;SDS011;6647;53.688;10.746;2022-09-17T03:33:30;20.08;;;3.20;;
13163;SDS011;6647;53.688;10.746;2022-09-17T03:34:51;20.67;;;3.33;;
13163;SDS011;6647;53.688;10.746;2022-09-17T03:36:14;24.58;;;4.15;;
13163;SDS011;6647;53.688;10.746;2022-09-17T03:37:35;18.95;;;3.72;;
13163;SDS011;6647;53.688;10.746;2022-09-17T03:38:56;16.10;;;2.92;;
13163;SDS011;6647;53.688;10.746;2022-09-17T03:40:17;16.67;;;2.97;;
13163;SDS011;6647;53.688;10.746;2022-09-17T03:41:39;21.02;;;3.50;;
13163;SDS011;6647;53.688;10.746;2022-09-17T03:43:00;18.58;;;3.83;;
13163;SDS011;6647;53.688;10.746;2022-09-17T03:44:20;27.38;;;3.70;;
13163;SDS011;6647;53.688;10.746;2022-09-17T03:45:43;33.20;;;4.55;;
13163;SDS011;6647;53.688;10.746;2022-09-17T03:47:03;21.38;;;3.25;;
13163;SDS011;6647;53.688;10.746;2022-09-17T03:48:25;18.25;;;3.08;;
13163;SDS011;6647;53.688;10.746;2022-09-17T03:49:46;16.08;;;3.03;;
13163;SDS011;6647;53.688;10.746;2022-09-17T03:51:07;22.92;;;3.50;;
13163;SDS011;6647;53.688;10.746;2022-09-17T03:52:28;18.75;;;3.47;;
13163;SDS011;6647;53.688;10.746;2022-09-17T03:53:49;15.90;;;3.08;;
13163;SDS011;6647;53.688;10.746;2022-09-17T03:55:10;18.90;;;2.95;;
13163;SDS011;6647;53.688;10.746;2022-09-17T03:56:31;20.23;;;3.60;;
13163;SDS011;6647;53.688;10.746;2022-09-17T03:57:52;19.30;;;3.70;;
13163;SDS011;6647;53.688;10.746;2022-09-17T03:59:13;22.08;;;3.28;;
13163;SDS011;6647;53.688;10.746;2022-09-17T04:00:34;18.38;;;2.85;;
13163;SDS011;6647;53.688;10.746;2022-09-17T04:01:56;18.73;;;3.65;;
13163;SDS011;6647;53.688;10.746;2022-09-17T04:03:17;25.10;;;2.90;;
13163;SDS011;6647;53.688;10.746;2022-09-17T04:04:38;14.32;;;2.50;;
13163;SDS011;6647;53.688;10.746;2022-09-17T04:05:59;16.23;;;2.55;;
13163;SDS011;6647;53.688;10.746;2022-09-17T04:07:20;16.83;;;3.78;;
13163;SDS011;6647;53.688;10.746;2022-09-17T04:08:41;14.93;;;2.78;;
13163;SDS011;6647;53.688;10.746;2022-09-17T04:10:03;16.42;;;2.88;;
13163;SDS011;6647;53.688;10.746;2022-09-17T04:11:24;15.52;;;3.67;;
13163;SDS011;6647;53.688;10.746;2022-09-17T04:12:45;13.45;;;3.22;;
13163;SDS011;6647;53.688;10.746;2022-09-17T04:14:06;18.15;;;2.70;;
13163;SDS011;6647;53.688;10.746;2022-09-17T04:15:27;18.63;;;3.08;;
13163;SDS011;6647;53.688;10.746;2022-09-17T04:16:48;22.35;;;3.55;;
13163;SDS011;6647;53.688;10.746;2022-09-17T04:18:09;18.90;;;2.88;;
13163;SDS011;6647;53.688;10.746;2022-09-17T04:19:30;9.73;;;2.25;;
13163;SDS011;6647;53.688;10.746;2022-09-17T04:20:51;20.13;;;3.13;;
13163;SDS011;6647;53.688;10.746;2022-09-17T04:22:12;20.00;;;3.47;;
13163;SDS011;6647;53.688;10.746;2022-09-17T04:23:33;19.67;;;3.38;;
13163;SDS011;6647;53.688;10.746;2022-09-17T04:24:54;18.52;;;3.13;;
13163;SDS011;6647;53.688;10.746;2022-09-17T04:26:15;15.85;;;2.85;;
13163;SDS011;6647;53.688;10.746;2022-09-17T04:27:36;16.50;;;3.50;;
13163;SDS011;6647;53.688;10.746;2022-09-17T04:28:57;16.05;;;2.78;;
13163;SDS011;6647;53.688;10.746;2022-09-17T04:30:17;20.38;;;3.30;;
13163;SDS011;6647;53.688;10.746;2022-09-17T04:31:38;17.88;;;3.08;;
13163;SDS011;6647;53.688;10.746;2022-09-17T04:32:59;21.73;;;3.30;;
13163;SDS011;6647;53.688;10.746;2022-09-17T04:34:20;16.52;;;2.63;;
13163;SDS011;6647;53.688;10.746;2022-09-17T04:35:41;18.45;;;3.53;;
13163;SDS011;6647;53.688;10.746;2022-09-17T04:37:02;17.40;;;2.75;;
13163;SDS011;6647;53.688;10.746;2022-09-17T04:38:23;35.95;;;3.60;;
13163;SDS011;6647;53.688;10.746;2022-09-17T04:39:44;20.65;;;3.20;;
13163;SDS011;6647;53.688;10.746;2022-09-17T04:41:05;28.60;;;4.38;;
13163;SDS011;6647;53.688;10.746;2022-09-17T04:42:27;15.77;;;2.90;;
13163;SDS011;6647;53.688;10.746;2022-09-17T04:43:47;17.08;;;2.92;;
13163;SDS011;6647;53.688;10.746;2022-09-17T04:45:08;18.33;;;3.30;;
13163;SDS011;6647;53.688;10.746;2022-09-17T04:46:29;20.52;;;3.55;;
13163;SDS011;6647;53.688;10.746;2022-09-17T04:47:50;23.50;;;4.05;;
13163;SDS011;6647;53.688;10.746;2022-09-17T04:49:11;19.73;;;3.10;;
13163;SDS011;6647;53.688;10.746;2022-09-17T04:50:32;18.25;;;2.83;;
13163;SDS011;6647;53.688;10.746;2022-09-17T04:51:53;18.02;;;2.80;;
13163;SDS011;6647;53.688;10.746;2022-09-17T04:53:14;14.90;;;2.50;;
13163;SDS011;6647;53.688;10.746;2022-09-17T04:54:35;19.05;;;3.50;;
13163;SDS011;6647;53.688;10.746;2022-09-17T04:55:55;21.77;;;3.15;;
13163;SDS011;6647;53.688;10.746;2022-09-17T04:57:16;15.00;;;3.22;;
13163;SDS011;6647;53.688;10.746;2022-09-17T04:58:37;22.33;;;2.95;;
13163;SDS011;6647;53.688;10.746;2022-09-17T04:59:58;19.00;;;3.90;;
13163;SDS011;6647;53.688;10.746;2022-09-17T05:01:19;22.13;;;2.80;;
13163;SDS011;6647;53.688;10.746;2022-09-17T05:02:41;28.85;;;3.25;;
13163;SDS011;6647;53.688;10.746;2022-09-17T05:04:04;16.67;;;3.40;;
13163;SDS011;6647;53.688;10.746;2022-09-17T05:05:25;20.88;;;2.92;;
13163;SDS011;6647;53.688;10.746;2022-09-17T05:06:45;18.65;;;3.95;;
13163;SDS011;6647;53.688;10.746;2022-09-17T05:08:06;12.02;;;2.92;;
13163;SDS011;6647;53.688;10.746;2022-09-17T05:09:27;13.30;;;2.65;;
13163;SDS011;6647;53.688;10.746;2022-09-17T05:10:49;22.60;;;3.33;;
13163;SDS011;6647;53.688;10.746;2022-09-17T05:12:10;17.55;;;3.05;;
13163;SDS011;6647;53.688;10.746;2022-09-17T05:13:31;19.17;;;3.20;;
13163;SDS011;6647;53.688;10.746;2022-09-17T05:14:52;24.10;;;3.80;;
13163;SDS011;6647;53.688;10.746;2022-09-17T05:16:13;26.60;;;3.25;;
13163;SDS011;6647;53.688;10.746;2022-09-17T05:17:34;20.65;;;3.45;;
13163;SDS011;6647;53.688;10.746;2022-09-17T05:18:54;18.85;;;3.08;;
13163;SDS011;6647;53.688;10.746;2022-09-17T05:20:17;25.48;;;3.40;;
13163;SDS011;6647;53.688;10.746;2022-09-17T05:21:38;26.83;;;4.22;;
13163;SDS011;6647;53.688;10.746;2022-09-17T05:22:59;20.50;;;3.30;;
13163;SDS011;6647;53.688;10.746;2022-09-17T05:24:19;12.82;;;3.30;;
13163;SDS011;6647;53.688;10.746;2022-09-17T05:25:40;18.17;;;2.50;;
13163;SDS011;6647;53.688;10.746;2022-09-17T05:27:01;17.23;;;3.15;;
13163;SDS011;6647;53.688;10.746;2022-09-17T05:28:22;17.45;;;3.17;;
13163;SDS011;6647;53.688;10.746;2022-09-17T05:29:43;21.40;;;2.72;;
13163;SDS011;6647;53.688;10.746;2022-09-17T05:31:04;17.27;;;2.75;;
13163;SDS011;6647;53.688;10.746;2022-09-17T05:32:25;18.77;;;3.08;;
13163;SDS011;6647;53.688;10.746;2022-09-17T05:33:46;10.77;;;2.25;;
13163;SDS011;6647;53.688;10.746;2022-09-17T05:35:07;14.25;;;2.63;;
13163;SDS011;6647;53.688;10.746;2022-09-17T05:36:29;12.68;;;2.38;;
13163;SDS011;6647;53.688;10.746;2022-09-17T05:37:50;14.02;;;2.65;;
13163;SDS011;6647;53.688;10.746;2022-09-17T05:39:10;19.05;;;4.10;;
13163;SDS011;6647;53.688;10.746;2022-09-17T05:40:31;21.50;;;3.65;;
13163;SDS011;6647;53.688;10.746;2022-09-17T05:41:52;24.52;;;2.97;;
13163;SDS011;6647;53.688;10.746;2022-09-17T05:43:14;14.95;;;2.72;;
13163;SDS011;6647;53.688;10.746;2022-09-17T05:44:35;16.42;;;3.47;;
13163;SDS011;6647;53.688;10.746;2022-09-17T05:45:59;10.15;;;2.65;;
13163;SDS011;6647;53.688;10.746;2022-09-17T05:47:25;21.98;;;3.25;;
13163;SDS011;6647;53.688;10.746;2022-09-17T05:48:45;15.85;;;2.80;;
13163;SDS011;6647;53.688;10.746;2022-09-17T05:50:06;22.75;;;3.67;;
13163;SDS011;6647;53.688;10.746;2022-09-17T05:51:28;27.77;;;3.22;;
13163;SDS011;6647;53.688;10.746;2022-09-17T05:52:49;19.63;;;3.22;;
13163;SDS011;6647;53.688;10.746;2022-09-17T05:54:10;16.80;;;2.92;;
13163;SDS011;6647;53.688;10.746;2022-09-17T05:55:31;17.70;;;3.05;;
13163;SDS011;6647;53.688;10.746;2022-09-17T05:56:54;13.32;;;2.90;;
13163;SDS011;6647;53.688;10.746;2022-09-17T05:58:16;18.95;;;3.38;;
13163;SDS011;6647;53.688;10.746;2022-09-17T05:59:38;22.05;;;3.70;;
13163;SDS011;6647;53.688;10.746;2022-09-17T06:00:59;13.73;;;3.10;;
13163;SDS011;6647;53.688;10.746;2022-09-17T06:02:20;16.23;;;3.10;;
13163;SDS011;6647;53.688;10.746;2022-09-17T06:03:41;18.42;;;3.92;;
13163;SDS011;6647;53.688;10.746;2022-09-17T06:05:03;14.75;;;2.38;;
13163;SDS011;6647;53.688;10.746;2022-09-17T06:06:24;18.02;;;2.58;;
13163;SDS011;6647;53.688;10.746;2022-09-17T06:07:49;19.08;;;3.85;;
13163;SDS011;6647;53.688;10.746;2022-09-17T06:09:10;18.23;;;3.78;;
13163;SDS011;6647;53.688;10.746;2022-09-17T06:10:31;28.08;;;3.60;;
13163;SDS011;6647;53.688;10.746;2022-09-17T06:11:55;20.50;;;3.78;;
13163;SDS011;6647;53.688;10.746;2022-09-17T06:13:16;18.95;;;3.00;;
13163;SDS011;6647;53.688;10.746;2022-09-17T06:14:38;21.70;;;2.75;;
13163;SDS011;6647;53.688;10.746;2022-09-17T06:15:59;17.95;;;3.33;;
13163;SDS011;6647;53.688;10.746;2022-09-17T06:17:21;11.60;;;2.85;;
13163;SDS011;6647;53.688;10.746;2022-09-17T06:18:42;17.67;;;4.30;;
13163;SDS011;6647;53.688;10.746;2022-09-17T06:20:03;17.58;;;2.90;;
13163;SDS011;6647;53.688;10.746;2022-09-17T06:21:25;10.68;;;3.28;;
13163;SDS011;6647;53.688;10.746;2022-09-17T06:22:46;13.18;;;2.65;;
13163;SDS011;6647;53.688;10.746;2022-09-17T06:24:08;24.05;;;3.88;;
13163;SDS011;6647;53.688;10.746;2022-09-17T06:25:29;21.85;;;3.72;;
13163;SDS011;6647;53.688;10.746;2022-09-17T06:26:51;16.63;;;3.13;;
13163;SDS011;6647;53.688;10.746;2022-09-17T06:28:12;19.05;;;3.25;;
13163;SDS011;6647;53.688;10.746;2022-09-17T06:29:32;20.73;;;3.45;;
13163;SDS011;6647;53.688;10.746;2022-09-17T06:30:53;16.23;;;2.97;;
13163;SDS011;6647;53.688;10.746;2022-09-17T06:32:18;11.82;;;2.97;;
13163;SDS011;6647;53.688;10.746;2022-09-17T06:33:39;15.52;;;3.45;;
13163;SDS011;6647;53.688;10.746;2022-09-17T06:35:00;16.20;;;2.90;;
13163;SDS011;6647;53.688;10.746;2022-09-17T06:36:22;13.35;;;3.05;;
13163;SDS011;6647;53.688;10.746;2022-09-17T06:37:42;14.95;;;2.78;;
13163;SDS011;6647;53.688;10.746;2022-09-17T06:39:03;14.88;;;2.67;;
13163;SDS011;6647;53.688;10.746;2022-09-17T06:40:24;26.58;;;3.85;;
13163;SDS011;6647;53.688;10.746;2022-09-17T06:41:45;20.52;;;3.20;;
13163;SDS011;6647;53.688;10.746;2022-09-17T06:43:06;14.40;;;3.28;;
13163;SDS011;6647;53.688;10.746;2022-09-17T06:44:27;16.50;;;3.38;;
13163;SDS011;6647;53.688;10.746;2022-09-17T06:45:51;12.15;;;2.35;;
13163;SDS011;6647;53.688;10.746;2022-09-17T06:47:16;33.55;;;3.35;;
13163;SDS011;6647;53.688;10.746;2022-09-17T06:48:37;18.05;;;3.70;;
13163;SDS011;6647;53.688;10.746;2022-09-17T06:49:58;21.67;;;4.05;;
13163;SDS011;6647;53.688;10.746;2022-09-17T06:51:20;18.83;;;3.40;;
13163;SDS011;6647;53.688;10.746;2022-09-17T06:52:47;15.38;;;2.97;;
13163;SDS011;6647;53.688;10.746;2022-09-17T06:54:12;12.63;;;2.60;;
13163;SDS011;6647;53.688;10.746;2022-09-17T06:55:33;21.85;;;3.85;;
13163;SDS011;6647;53.688;10.746;2022-09-17T06:56:54;18.73;;;3.58;;
13163;SDS011;6647;53.688;10.746;2022-09-17T06:58:15;14.43;;;2.50;;
13163;SDS011;6647;53.688;10.746;2022-09-17T06:59:36;15.85;;;3.20;;
13163;SDS011;6647;53.688;10.746;2022-09-17T07:00:57;17.38;;;3.00;;
13163;SDS011;6647;53.688;10.746;2022-09-17T07:02:20;15.30;;;3.03;;
13163;SDS011;6647;53.688;10.746;2022-09-17T07:03:41;17.77;;;2.90;;
13163;SDS011;6647;53.688;10.746;2022-09-17T07:05:02;29.23;;;4.07;;
13163;SDS011;6647;53.688;10.746;2022-09-17T07:06:24;12.50;;;3.13;;
13163;SDS011;6647;53.688;10.746;2022-09-17T07:07:45;20.20;;;3.38;;
13163;SDS011;6647;53.688;10.746;2022-09-17T07:09:06;19.90;;;2.92;;
13163;SDS011;6647;53.688;10.746;2022-09-17T07:10:27;23.38;;;3.30;;
13163;SDS011;6647;53.688;10.746;2022-09-17T07:11:48;17.90;;;3.58;;
13163;SDS011;6647;53.688;10.746;2022-09-17T07:13:09;19.42;;;3.72;;
13163;SDS011;6647;53.688;10.746;2022-09-17T07:14:30;13.63;;;3.03;;
13163;SDS011;6647;53.688;10.746;2022-09-17T07:15:57;11.85;;;2.17;;
13163;SDS011;6647;53.688;10.746;2022-09-17T07:17:19;17.45;;;2.60;;
13163;SDS011;6647;53.688;10.746;2022-09-17T07:18:40;20.35;;;3.47;;
13163;SDS011;6647;53.688;10.746;2022-09-17T07:20:01;12.32;;;2.60;;
13163;SDS011;6647;53.688;10.746;2022-09-17T07:21:22;12.90;;;3.03;;
13163;SDS011;6647;53.688;10.746;2022-09-17T07:22:43;14.48;;;2.58;;
13163;SDS011;6647;53.688;10.746;2022-09-17T07:24:04;21.85;;;3.28;;
13163;SDS011;6647;53.688;10.746;2022-09-17T07:25:25;16.88;;;3.35;;
13163;SDS011;6647;53.688;10.746;2022-09-17T07:26:46;14.27;;;2.90;;
13163;SDS011;6647;53.688;10.746;2022-09-17T07:28:09;17.75;;;3.35;;
13163;SDS011;6647;53.688;10.746;2022-09-17T07:29:30;19.38;;;2.72;;
13163;SDS011;6647;53.688;10.746;2022-09-17T07:30:51;13.88;;;2.33;;
13163;SDS011;6647;53.688;10.746;2022-09-17T07:32:14;24.60;;;3.33;;
13163;SDS011;6647;53.688;10.746;2022-09-17T07:33:35;12.52;;;2.45;;
13163;SDS011;6647;53.688;10.746;2022-09-17T07:34:56;12.73;;;2.97;;
13163;SDS011;6647;53.688;10.746;2022-09-17T07:36:17;18.48;;;2.55;;
13163;SDS011;6647;53.688;10.746;2022-09-17T07:37:38;19.58;;;3.40;;
13163;SDS011;6647;53.688;10.746;2022-09-17T07:38:59;20.00;;;2.50;;
13163;SDS011;6647;53.688;10.746;2022-09-17T07:40:20;16.00;;;2.78;;
13163;SDS011;6647;53.688;10.746;2022-09-17T07:41:41;16.80;;;2.70;;
13163;SDS011;6647;53.688;10.746;2022-09-17T07:43:02;15.15;;;2.50;;
13163;SDS011;6647;53.688;10.746;2022-09-17T07:44:23;15.98;;;2.55;;
13163;SDS011;6647;53.688;10.746;2022-09-17T07:45:44;10.43;;;2.80;;
13163;SDS011;6647;53.688;10.746;2022-09-17T07:47:05;18.00;;;2.90;;
13163;SDS011;6647;53.688;10.746;2022-09-17T07:48:26;16.33;;;2.47;;
13163;SDS011;6647;53.688;10.746;2022-09-17T07:49:47;13.63;;;2.60;;
13163;SDS011;6647;53.688;10.746;2022-09-17T07:51:13;16.02;;;2.30;;
13163;SDS011;6647;53.688;10.746;2022-09-17T07:52:35;17.23;;;2.47;;
13163;SDS011;6647;53.688;10.746;2022-09-17T07:53:57;13.40;;;2.58;;
13163;SDS011;6647;53.688;10.746;2022-09-17T07:55:19;16.48;;;2.35;;
13163;SDS011;6647;53.688;10.746;2022-09-17T07:56:40;6.95;;;1.58;;
13163;SDS011;6647;53.688;10.746;2022-09-17T07:58:01;13.48;;;2.20;;
13163;SDS011;6647;53.688;10.746;2022-09-17T07:59:22;8.25;;;1.77;;
13163;SDS011;6647;53.688;10.746;2022-09-17T08:00:42;13.57;;;1.95;;
13163;SDS011;6647;53.688;10.746;2022-09-17T08:02:03;17.45;;;2.35;;
13163;SDS011;6647;53.688;10.746;2022-09-17T08:03:32;14.15;;;1.95;;
13163;SDS011;6647;53.688;10.746;2022-09-17T08:04:53;12.60;;;1.90;;
13163;SDS011;6647;53.688;10.746;2022-09-17T08:06:15;10.55;;;1.80;;
13163;SDS011;6647;53.688;10.746;2022-09-17T08:07:38;8.43;;;1.50;;
13163;SDS011;6647;53.688;10.746;2022-09-17T08:08:59;10.48;;;1.50;;
13163;SDS011;6647;53.688;10.746;2022-09-17T08:10:21;7.00;;;1.90;;
13163;SDS011;6647;53.688;10.746;2022-09-17T08:11:42;12.68;;;1.58;;
13163;SDS011;6647;53.688;10.746;2022-09-17T08:13:03;5.07;;;1.50;;
13163;SDS011;6647;53.688;10.746;2022-09-17T08:14:24;9.25;;;1.15;;
13163;SDS011;6647;53.688;10.746;2022-09-17T08:15:45;12.52;;;1.95;;
13163;SDS011;6647;53.688;10.746;2022-09-17T08:17:06;6.82;;;1.60;;
13163;SDS011;6647;53.688;10.746;2022-09-17T08:18:27;5.82;;;1.05;;
13163;SDS011;6647;53.688;10.746;2022-09-17T08:19:49;7.55;;;1.35;;
13163;SDS011;6647;53.688;10.746;2022-09-17T08:21:11;10.88;;;1.92;;
13163;SDS011;6647;53.688;10.746;2022-09-17T08:22:33;5.68;;;1.45;;
13163;SDS011;6647;53.688;10.746;2022-09-17T08:23:54;6.55;;;1.75;;
13163;SDS011;6647;53.688;10.746;2022-09-17T08:25:15;7.30;;;1.70;;
13163;SDS011;6647;53.688;10.746;2022-09-17T08:26:36;4.05;;;1.38;;
13163;SDS011;6647;53.688;10.746;2022-09-17T08:27:57;9.55;;;1.42;;
13163;SDS011;6647;53.688;10.746;2022-09-17T08:29:18;8.85;;;1.25;;
13163;SDS011;6647;53.688;10.746;2022-09-17T08:30:39;9.85;;;1.33;;
13163;SDS011;6647;53.688;10.746;2022-09-17T08:32:00;8.10;;;1.85;;
13163;SDS011;6647;53.688;10.746;2022-09-17T08:33:21;5.80;;;1.23;;
13163;SDS011;6647;53.688;10.746;2022-09-17T08:34:41;5.47;;;1.23;;
13163;SDS011;6647;53.688;10.746;2022-09-17T08:36:03;4.65;;;1.23;;
13163;SDS011;6647;53.688;10.746;2022-09-17T08:37:25;5.18;;;1.02;;
13163;SDS011;6647;53.688;10.746;2022-09-17T08:38:51;6.80;;;1.38;;
13163;SDS011;6647;53.688;10.746;2022-09-17T08:40:16;5.65;;;1.25;;
13163;SDS011;6647;53.688;10.746;2022-09-17T08:42:01;7.53;;;1.10;;
13163;SDS011;6647;53.688;10.746;2022-09-17T08:43:28;4.82;;;1.60;;
13163;SDS011;6647;53.688;10.746;2022-09-17T08:44:53;4.47;;;1.00;;
13163;SDS011;6647;53.688;10.746;2022-09-17T08:46:16;2.80;;;0.63;;
13163;SDS011;6647;53.688;10.746;2022-09-17T08:47:37;7.22;;;0.90;;
13163;SDS011;6647;53.688;10.746;2022-09-17T08:50:36;6.57;;;1.10;;